sensor_id;sensor_type;location;lat;lon;timestamp;P1;durP1;ratioP1;P2;durP2;ratioP2
18999;SDS011;9633;50.980;13.850;2023-07-22T00:00:12;6.37;;;4.57;;
18999;SDS011;9633;50.980;13.850;2023-07-22T00:01:48;6.00;;;4.70;;
18999;SDS011;9633;50.980;13.850;2023-07-22T00:03:20;5.73;;;5.10;;
18999;SDS011;9633;50.980;13.850;2023-07-22T00:04:55;6.47;;;4.90;;
18999;SDS011;9633;50.980;13.850;2023-07-22T00:06:27;6.13;;;4.83;;
18999;SDS011;9633;50.980;13.850;2023-07-22T00:08:02;5.47;;;4.10;;
18999;SDS011;9633;50.980;13.850;2023-07-22T00:09:35;5.63;;;4.93;;
18999;SDS011;9633;50.980;13.850;2023-07-22T00:11:10;5.60;;;4.80;;
18999;SDS011;9633;50.980;13.850;2023-07-22T00:12:42;5.43;;;4.73;;
18999;SDS011;9633;50.980;13.850;2023-07-22T00:14:15;6.00;;;4.97;;
18999;SDS011;9633;50.980;13.850;2023-07-22T00:15:47;5.40;;;4.70;;
18999;SDS011;9633;50.980;13.850;2023-07-22T00:17:21;5.50;;;4.30;;
18999;SDS011;9633;50.980;13.850;2023-07-22T00:18:55;6.67;;;4.67;;
18999;SDS011;9633;50.980;13.850;2023-07-22T00:20:29;5.80;;;5.07;;
18999;SDS011;9633;50.980;13.850;2023-07-22T00:22:01;5.23;;;4.30;;
18999;SDS011;9633;50.980;13.850;2023-07-22T00:23:35;6.47;;;4.63;;
18999;SDS011;9633;50.980;13.850;2023-07-22T00:25:09;6.00;;;4.57;;
18999;SDS011;9633;50.980;13.850;2023-07-22T00:26:43;6.97;;;4.43;;
18999;SDS011;9633;50.980;13.850;2023-07-22T00:28:15;5.47;;;4.70;;
18999;SDS011;9633;50.980;13.850;2023-07-22T00:29:50;6.53;;;5.00;;
18999;SDS011;9633;50.980;13.850;2023-07-22T00:31:23;7.60;;;5.07;;
18999;SDS011;9633;50.980;13.850;2023-07-22T00:32:56;5.77;;;4.50;;
18999;SDS011;9633;50.980;13.850;2023-07-22T00:34:28;6.63;;;5.13;;
18999;SDS011;9633;50.980;13.850;2023-07-22T00:36:01;6.73;;;4.63;;
18999;SDS011;9633;50.980;13.850;2023-07-22T00:37:34;7.37;;;4.93;;
18999;SDS011;9633;50.980;13.850;2023-07-22T00:39:09;7.60;;;5.40;;
18999;SDS011;9633;50.980;13.850;2023-07-22T00:40:45;6.80;;;4.93;;
18999;SDS011;9633;50.980;13.850;2023-07-22T00:42:17;6.07;;;5.10;;
18999;SDS011;9633;50.980;13.850;2023-07-22T00:43:52;8.50;;;4.90;;
18999;SDS011;9633;50.980;13.850;2023-07-22T00:45:24;6.53;;;4.97;;
18999;SDS011;9633;50.980;13.850;2023-07-22T00:46:57;6.90;;;4.93;;
18999;SDS011;9633;50.980;13.850;2023-07-22T00:48:31;5.40;;;4.70;;
18999;SDS011;9633;50.980;13.850;2023-07-22T00:50:05;5.37;;;4.87;;
18999;SDS011;9633;50.980;13.850;2023-07-22T00:51:39;6.67;;;4.53;;
18999;SDS011;9633;50.980;13.850;2023-07-22T00:53:12;6.27;;;4.47;;
18999;SDS011;9633;50.980;13.850;2023-07-22T00:54:46;8.80;;;4.77;;
18999;SDS011;9633;50.980;13.850;2023-07-22T00:56:18;6.20;;;5.03;;
18999;SDS011;9633;50.980;13.850;2023-07-22T00:57:52;6.37;;;4.50;;
18999;SDS011;9633;50.980;13.850;2023-07-22T00:59:24;4.97;;;4.47;;
18999;SDS011;9633;50.980;13.850;2023-07-22T01:00:58;7.00;;;5.03;;
18999;SDS011;9633;50.980;13.850;2023-07-22T01:02:31;5.23;;;4.73;;
18999;SDS011;9633;50.980;13.850;2023-07-22T01:04:04;7.90;;;5.07;;
18999;SDS011;9633;50.980;13.850;2023-07-22T01:05:37;5.63;;;4.77;;
18999;SDS011;9633;50.980;13.850;2023-07-22T01:07:10;6.20;;;4.60;;
18999;SDS011;9633;50.980;13.850;2023-07-22T01:08:44;4.83;;;4.27;;
18999;SDS011;9633;50.980;13.850;2023-07-22T01:10:19;6.47;;;4.47;;
18999;SDS011;9633;50.980;13.850;2023-07-22T01:11:54;6.73;;;4.40;;
18999;SDS011;9633;50.980;13.850;2023-07-22T01:13:26;7.53;;;4.47;;
18999;SDS011;9633;50.980;13.850;2023-07-22T01:14:59;4.67;;;4.17;;
18999;SDS011;9633;50.980;13.850;2023-07-22T01:16:34;5.17;;;4.33;;
18999;SDS011;9633;50.980;13.850;2023-07-22T01:18:08;6.53;;;4.80;;
18999;SDS011;9633;50.980;13.850;2023-07-22T01:19:41;5.50;;;4.30;;
18999;SDS011;9633;50.980;13.850;2023-07-22T01:21:15;6.90;;;4.30;;
18999;SDS011;9633;50.980;13.850;2023-07-22T01:22:51;5.30;;;4.47;;
18999;SDS011;9633;50.980;13.850;2023-07-22T01:24:24;7.97;;;4.13;;
18999;SDS011;9633;50.980;13.850;2023-07-22T01:25:58;5.27;;;4.17;;
18999;SDS011;9633;50.980;13.850;2023-07-22T01:27:31;6.40;;;4.03;;
18999;SDS011;9633;50.980;13.850;2023-07-22T01:29:04;4.93;;;4.17;;
18999;SDS011;9633;50.980;13.850;2023-07-22T01:30:37;6.50;;;4.50;;
18999;SDS011;9633;50.980;13.850;2023-07-22T01:32:11;6.23;;;4.90;;
18999;SDS011;9633;50.980;13.850;2023-07-22T01:33:43;7.17;;;4.30;;
18999;SDS011;9633;50.980;13.850;2023-07-22T01:35:16;6.67;;;4.70;;
18999;SDS011;9633;50.980;13.850;2023-07-22T01:36:49;9.77;;;5.00;;
18999;SDS011;9633;50.980;13.850;2023-07-22T01:38:23;7.50;;;4.90;;
18999;SDS011;9633;50.980;13.850;2023-07-22T01:39:55;6.83;;;4.57;;
18999;SDS011;9633;50.980;13.850;2023-07-22T01:41:29;7.63;;;4.53;;
18999;SDS011;9633;50.980;13.850;2023-07-22T01:43:01;6.57;;;5.00;;
18999;SDS011;9633;50.980;13.850;2023-07-22T01:44:34;5.37;;;4.27;;
18999;SDS011;9633;50.980;13.850;2023-07-22T01:46:06;6.50;;;4.90;;
18999;SDS011;9633;50.980;13.850;2023-07-22T01:47:40;7.03;;;4.63;;
18999;SDS011;9633;50.980;13.850;2023-07-22T01:49:12;6.53;;;4.87;;
18999;SDS011;9633;50.980;13.850;2023-07-22T01:50:46;7.17;;;4.70;;
18999;SDS011;9633;50.980;13.850;2023-07-22T01:52:19;5.43;;;4.50;;
18999;SDS011;9633;50.980;13.850;2023-07-22T01:53:53;5.67;;;4.70;;
18999;SDS011;9633;50.980;13.850;2023-07-22T01:55:28;6.77;;;4.30;;
18999;SDS011;9633;50.980;13.850;2023-07-22T01:57:01;5.60;;;4.53;;
18999;SDS011;9633;50.980;13.850;2023-07-22T01:58:34;6.73;;;4.53;;
18999;SDS011;9633;50.980;13.850;2023-07-22T02:00:06;5.97;;;4.50;;
18999;SDS011;9633;50.980;13.850;2023-07-22T02:01:45;6.10;;;4.20;;
18999;SDS011;9633;50.980;13.850;2023-07-22T02:03:19;4.57;;;4.00;;
18999;SDS011;9633;50.980;13.850;2023-07-22T02:04:52;5.03;;;4.40;;
18999;SDS011;9633;50.980;13.850;2023-07-22T02:06:24;6.40;;;4.40;;
18999;SDS011;9633;50.980;13.850;2023-07-22T02:07:59;5.43;;;3.97;;
18999;SDS011;9633;50.980;13.850;2023-07-22T02:09:33;8.73;;;4.53;;
18999;SDS011;9633;50.980;13.850;2023-07-22T02:11:07;6.43;;;4.37;;
18999;SDS011;9633;50.980;13.850;2023-07-22T02:12:40;5.97;;;4.47;;
18999;SDS011;9633;50.980;13.850;2023-07-22T02:14:13;5.33;;;4.70;;
18999;SDS011;9633;50.980;13.850;2023-07-22T02:15:45;6.77;;;4.57;;
18999;SDS011;9633;50.980;13.850;2023-07-22T02:17:19;7.13;;;5.20;;
18999;SDS011;9633;50.980;13.850;2023-07-22T02:18:52;6.07;;;5.10;;
18999;SDS011;9633;50.980;13.850;2023-07-22T02:20:25;8.57;;;5.60;;
18999;SDS011;9633;50.980;13.850;2023-07-22T02:22:00;9.57;;;5.90;;
18999;SDS011;9633;50.980;13.850;2023-07-22T02:23:34;10.87;;;5.43;;
18999;SDS011;9633;50.980;13.850;2023-07-22T02:25:08;10.53;;;5.40;;
18999;SDS011;9633;50.980;13.850;2023-07-22T02:26:42;7.10;;;5.73;;
18999;SDS011;9633;50.980;13.850;2023-07-22T02:28:14;7.57;;;5.50;;
18999;SDS011;9633;50.980;13.850;2023-07-22T02:29:48;8.40;;;6.13;;
18999;SDS011;9633;50.980;13.850;2023-07-22T02:31:20;7.50;;;5.67;;
18999;SDS011;9633;50.980;13.850;2023-07-22T02:32:54;6.47;;;5.30;;
18999;SDS011;9633;50.980;13.850;2023-07-22T02:34:26;7.37;;;5.67;;
18999;SDS011;9633;50.980;13.850;2023-07-22T02:35:59;7.40;;;5.63;;
18999;SDS011;9633;50.980;13.850;2023-07-22T02:37:33;8.13;;;5.43;;
18999;SDS011;9633;50.980;13.850;2023-07-22T02:39:05;6.30;;;5.30;;
18999;SDS011;9633;50.980;13.850;2023-07-22T02:40:42;6.40;;;5.20;;
18999;SDS011;9633;50.980;13.850;2023-07-22T02:42:15;8.63;;;5.90;;
18999;SDS011;9633;50.980;13.850;2023-07-22T02:43:47;7.80;;;5.90;;
18999;SDS011;9633;50.980;13.850;2023-07-22T02:45:21;6.73;;;5.87;;
18999;SDS011;9633;50.980;13.850;2023-07-22T02:46:54;8.77;;;5.83;;
18999;SDS011;9633;50.980;13.850;2023-07-22T02:48:27;6.93;;;5.70;;
18999;SDS011;9633;50.980;13.850;2023-07-22T02:50:03;10.87;;;6.10;;
18999;SDS011;9633;50.980;13.850;2023-07-22T02:51:37;7.57;;;6.10;;
18999;SDS011;9633;50.980;13.850;2023-07-22T02:53:11;8.40;;;6.27;;
18999;SDS011;9633;50.980;13.850;2023-07-22T02:54:43;8.30;;;6.63;;
18999;SDS011;9633;50.980;13.850;2023-07-22T02:56:39;7.43;;;6.30;;
18999;SDS011;9633;50.980;13.850;2023-07-22T02:58:12;10.43;;;6.17;;
18999;SDS011;9633;50.980;13.850;2023-07-22T02:59:45;8.27;;;6.03;;
18999;SDS011;9633;50.980;13.850;2023-07-22T03:01:17;9.87;;;6.27;;
18999;SDS011;9633;50.980;13.850;2023-07-22T03:02:51;6.67;;;5.97;;
18999;SDS011;9633;50.980;13.850;2023-07-22T03:04:24;10.53;;;6.30;;
18999;SDS011;9633;50.980;13.850;2023-07-22T03:05:57;8.27;;;6.30;;
18999;SDS011;9633;50.980;13.850;2023-07-22T03:07:31;6.63;;;5.93;;
18999;SDS011;9633;50.980;13.850;2023-07-22T03:09:03;8.77;;;5.70;;
18999;SDS011;9633;50.980;13.850;2023-07-22T03:10:38;7.17;;;6.47;;
18999;SDS011;9633;50.980;13.850;2023-07-22T03:12:11;9.73;;;6.40;;
18999;SDS011;9633;50.980;13.850;2023-07-22T03:13:45;7.13;;;6.43;;
18999;SDS011;9633;50.980;13.850;2023-07-22T03:15:19;6.70;;;6.10;;
18999;SDS011;9633;50.980;13.850;2023-07-22T03:16:52;7.63;;;6.57;;
18999;SDS011;9633;50.980;13.850;2023-07-22T03:18:25;8.47;;;6.97;;
18999;SDS011;9633;50.980;13.850;2023-07-22T03:19:57;10.90;;;6.87;;
18999;SDS011;9633;50.980;13.850;2023-07-22T03:21:31;8.27;;;6.57;;
18999;SDS011;9633;50.980;13.850;2023-07-22T03:23:04;9.90;;;6.67;;
18999;SDS011;9633;50.980;13.850;2023-07-22T03:24:37;8.13;;;6.43;;
18999;SDS011;9633;50.980;13.850;2023-07-22T03:26:09;8.83;;;6.47;;
18999;SDS011;9633;50.980;13.850;2023-07-22T03:27:44;8.93;;;6.37;;
18999;SDS011;9633;50.980;13.850;2023-07-22T03:29:16;8.20;;;6.33;;
18999;SDS011;9633;50.980;13.850;2023-07-22T03:30:50;9.53;;;7.20;;
18999;SDS011;9633;50.980;13.850;2023-07-22T03:32:22;8.60;;;6.27;;
18999;SDS011;9633;50.980;13.850;2023-07-22T03:33:55;9.03;;;6.13;;
18999;SDS011;9633;50.980;13.850;2023-07-22T03:35:29;6.83;;;6.03;;
18999;SDS011;9633;50.980;13.850;2023-07-22T03:37:01;8.53;;;6.20;;
18999;SDS011;9633;50.980;13.850;2023-07-22T03:38:35;7.67;;;6.07;;
18999;SDS011;9633;50.980;13.850;2023-07-22T03:40:07;8.50;;;6.20;;
18999;SDS011;9633;50.980;13.850;2023-07-22T03:41:43;7.37;;;6.33;;
18999;SDS011;9633;50.980;13.850;2023-07-22T03:43:16;8.37;;;5.90;;
18999;SDS011;9633;50.980;13.850;2023-07-22T03:44:50;6.60;;;5.67;;
18999;SDS011;9633;50.980;13.850;2023-07-22T03:46:22;6.77;;;6.10;;
18999;SDS011;9633;50.980;13.850;2023-07-22T03:47:56;7.40;;;6.60;;
18999;SDS011;9633;50.980;13.850;2023-07-22T03:49:29;9.40;;;6.53;;
18999;SDS011;9633;50.980;13.850;2023-07-22T03:51:02;7.83;;;6.00;;
18999;SDS011;9633;50.980;13.850;2023-07-22T03:52:50;8.23;;;6.37;;
18999;SDS011;9633;50.980;13.850;2023-07-22T03:54:24;8.03;;;6.27;;
18999;SDS011;9633;50.980;13.850;2023-07-22T03:55:56;7.70;;;6.40;;
18999;SDS011;9633;50.980;13.850;2023-07-22T03:57:29;8.03;;;6.73;;
18999;SDS011;9633;50.980;13.850;2023-07-22T03:59:02;9.20;;;6.53;;
18999;SDS011;9633;50.980;13.850;2023-07-22T04:00:37;9.80;;;6.20;;
18999;SDS011;9633;50.980;13.850;2023-07-22T04:02:10;8.97;;;7.00;;
18999;SDS011;9633;50.980;13.850;2023-07-22T04:03:43;8.63;;;7.10;;
18999;SDS011;9633;50.980;13.850;2023-07-22T04:05:15;7.57;;;6.40;;
18999;SDS011;9633;50.980;13.850;2023-07-22T04:06:48;9.13;;;6.90;;
18999;SDS011;9633;50.980;13.850;2023-07-22T04:08:20;9.77;;;7.23;;
18999;SDS011;9633;50.980;13.850;2023-07-22T04:09:54;9.50;;;6.60;;
18999;SDS011;9633;50.980;13.850;2023-07-22T04:11:26;13.63;;;7.17;;
18999;SDS011;9633;50.980;13.850;2023-07-22T04:12:59;8.53;;;6.77;;
18999;SDS011;9633;50.980;13.850;2023-07-22T04:14:34;7.07;;;6.33;;
18999;SDS011;9633;50.980;13.850;2023-07-22T04:16:06;8.63;;;6.73;;
18999;SDS011;9633;50.980;13.850;2023-07-22T04:17:39;8.57;;;6.97;;
18999;SDS011;9633;50.980;13.850;2023-07-22T04:19:11;9.57;;;6.90;;
18999;SDS011;9633;50.980;13.850;2023-07-22T04:20:45;8.07;;;7.17;;
18999;SDS011;9633;50.980;13.850;2023-07-22T04:22:20;9.53;;;7.23;;
18999;SDS011;9633;50.980;13.850;2023-07-22T04:23:52;9.33;;;6.93;;
18999;SDS011;9633;50.980;13.850;2023-07-22T04:25:26;7.93;;;6.23;;
18999;SDS011;9633;50.980;13.850;2023-07-22T04:26:58;9.70;;;7.03;;
18999;SDS011;9633;50.980;13.850;2023-07-22T04:28:31;8.23;;;6.50;;
18999;SDS011;9633;50.980;13.850;2023-07-22T04:30:06;8.53;;;6.63;;
18999;SDS011;9633;50.980;13.850;2023-07-22T04:31:40;8.17;;;6.60;;
18999;SDS011;9633;50.980;13.850;2023-07-22T04:33:13;9.40;;;6.70;;
18999;SDS011;9633;50.980;13.850;2023-07-22T04:34:46;9.23;;;7.37;;
18999;SDS011;9633;50.980;13.850;2023-07-22T04:36:19;10.33;;;6.83;;
18999;SDS011;9633;50.980;13.850;2023-07-22T04:37:52;8.57;;;6.80;;
18999;SDS011;9633;50.980;13.850;2023-07-22T04:39:24;7.37;;;6.57;;
18999;SDS011;9633;50.980;13.850;2023-07-22T04:40:58;7.43;;;6.40;;
18999;SDS011;9633;50.980;13.850;2023-07-22T04:42:31;8.50;;;6.80;;
18999;SDS011;9633;50.980;13.850;2023-07-22T04:44:04;6.43;;;5.57;;
18999;SDS011;9633;50.980;13.850;2023-07-22T04:45:38;7.27;;;5.87;;
18999;SDS011;9633;50.980;13.850;2023-07-22T04:47:12;7.13;;;5.73;;
18999;SDS011;9633;50.980;13.850;2023-07-22T04:48:45;7.53;;;6.00;;
18999;SDS011;9633;50.980;13.850;2023-07-22T04:50:17;7.37;;;5.87;;
18999;SDS011;9633;50.980;13.850;2023-07-22T04:51:53;7.00;;;6.30;;
18999;SDS011;9633;50.980;13.850;2023-07-22T04:53:25;6.20;;;5.53;;
18999;SDS011;9633;50.980;13.850;2023-07-22T04:54:58;9.37;;;5.40;;
18999;SDS011;9633;50.980;13.850;2023-07-22T04:56:31;9.30;;;5.77;;
18999;SDS011;9633;50.980;13.850;2023-07-22T04:58:04;7.73;;;5.00;;
18999;SDS011;9633;50.980;13.850;2023-07-22T04:59:36;7.40;;;5.40;;
18999;SDS011;9633;50.980;13.850;2023-07-22T05:01:11;7.50;;;5.60;;
18999;SDS011;9633;50.980;13.850;2023-07-22T05:02:43;6.87;;;5.20;;
18999;SDS011;9633;50.980;13.850;2023-07-22T05:04:18;6.03;;;5.40;;
18999;SDS011;9633;50.980;13.850;2023-07-22T05:05:50;8.07;;;5.67;;
18999;SDS011;9633;50.980;13.850;2023-07-22T05:07:23;6.20;;;5.30;;
18999;SDS011;9633;50.980;13.850;2023-07-22T05:08:56;5.90;;;5.30;;
18999;SDS011;9633;50.980;13.850;2023-07-22T05:10:29;7.40;;;5.33;;
18999;SDS011;9633;50.980;13.850;2023-07-22T05:12:01;7.07;;;5.63;;
18999;SDS011;9633;50.980;13.850;2023-07-22T05:13:34;5.87;;;5.27;;
18999;SDS011;9633;50.980;13.850;2023-07-22T05:15:07;9.33;;;5.90;;
18999;SDS011;9633;50.980;13.850;2023-07-22T05:16:43;9.13;;;5.50;;
18999;SDS011;9633;50.980;13.850;2023-07-22T05:18:16;8.23;;;5.40;;
18999;SDS011;9633;50.980;13.850;2023-07-22T05:19:48;7.00;;;5.77;;
18999;SDS011;9633;50.980;13.850;2023-07-22T05:21:22;6.07;;;5.20;;
18999;SDS011;9633;50.980;13.850;2023-07-22T05:22:54;6.20;;;4.57;;
18999;SDS011;9633;50.980;13.850;2023-07-22T05:24:28;5.77;;;5.10;;
18999;SDS011;9633;50.980;13.850;2023-07-22T05:26:00;9.00;;;5.37;;
18999;SDS011;9633;50.980;13.850;2023-07-22T05:27:34;6.80;;;5.20;;
18999;SDS011;9633;50.980;13.850;2023-07-22T05:29:06;5.37;;;4.37;;
18999;SDS011;9633;50.980;13.850;2023-07-22T05:30:40;6.97;;;4.73;;
18999;SDS011;9633;50.980;13.850;2023-07-22T05:32:14;6.43;;;5.50;;
18999;SDS011;9633;50.980;13.850;2023-07-22T05:34:04;6.27;;;4.60;;
18999;SDS011;9633;50.980;13.850;2023-07-22T05:35:37;7.83;;;4.90;;
18999;SDS011;9633;50.980;13.850;2023-07-22T05:37:09;7.03;;;4.57;;
18999;SDS011;9633;50.980;13.850;2023-07-22T05:38:42;8.23;;;5.00;;
18999;SDS011;9633;50.980;13.850;2023-07-22T05:40:15;8.53;;;4.93;;
18999;SDS011;9633;50.980;13.850;2023-07-22T05:41:48;7.87;;;4.80;;
18999;SDS011;9633;50.980;13.850;2023-07-22T05:43:21;7.07;;;5.10;;
18999;SDS011;9633;50.980;13.850;2023-07-22T05:44:55;5.40;;;4.90;;
18999;SDS011;9633;50.980;13.850;2023-07-22T05:46:28;5.70;;;5.20;;
18999;SDS011;9633;50.980;13.850;2023-07-22T05:48:04;8.20;;;4.57;;
18999;SDS011;9633;50.980;13.850;2023-07-22T05:49:37;5.93;;;4.90;;
18999;SDS011;9633;50.980;13.850;2023-07-22T05:51:10;6.10;;;4.60;;
18999;SDS011;9633;50.980;13.850;2023-07-22T05:52:43;7.97;;;4.70;;
18999;SDS011;9633;50.980;13.850;2023-07-22T05:54:15;6.30;;;4.53;;
18999;SDS011;9633;50.980;13.850;2023-07-22T05:55:48;5.63;;;4.20;;
18999;SDS011;9633;50.980;13.850;2023-07-22T05:57:20;4.80;;;4.30;;
18999;SDS011;9633;50.980;13.850;2023-07-22T05:58:54;5.53;;;4.07;;
18999;SDS011;9633;50.980;13.850;2023-07-22T06:00:26;5.93;;;4.20;;
18999;SDS011;9633;50.980;13.850;2023-07-22T06:01:59;4.33;;;3.63;;
18999;SDS011;9633;50.980;13.850;2023-07-22T06:03:33;5.67;;;3.83;;
18999;SDS011;9633;50.980;13.850;2023-07-22T06:05:06;4.23;;;3.67;;
18999;SDS011;9633;50.980;13.850;2023-07-22T06:06:39;6.63;;;3.87;;
18999;SDS011;9633;50.980;13.850;2023-07-22T06:08:12;4.40;;;3.70;;
18999;SDS011;9633;50.980;13.850;2023-07-22T06:09:45;4.37;;;3.93;;
18999;SDS011;9633;50.980;13.850;2023-07-22T06:11:17;5.90;;;4.20;;
18999;SDS011;9633;50.980;13.850;2023-07-22T06:12:51;5.23;;;4.03;;
18999;SDS011;9633;50.980;13.850;2023-07-22T06:14:23;9.03;;;4.27;;
18999;SDS011;9633;50.980;13.850;2023-07-22T06:15:57;4.43;;;3.70;;
18999;SDS011;9633;50.980;13.850;2023-07-22T06:17:30;5.00;;;4.50;;
18999;SDS011;9633;50.980;13.850;2023-07-22T06:19:03;5.87;;;4.40;;
18999;SDS011;9633;50.980;13.850;2023-07-22T06:20:37;6.20;;;4.43;;
18999;SDS011;9633;50.980;13.850;2023-07-22T06:22:10;7.00;;;4.60;;
18999;SDS011;9633;50.980;13.850;2023-07-22T06:23:43;6.33;;;4.83;;
18999;SDS011;9633;50.980;13.850;2023-07-22T06:25:15;5.20;;;4.27;;
18999;SDS011;9633;50.980;13.850;2023-07-22T06:26:48;4.80;;;4.30;;
18999;SDS011;9633;50.980;13.850;2023-07-22T06:28:20;7.17;;;4.93;;
18999;SDS011;9633;50.980;13.850;2023-07-22T06:29:55;7.77;;;4.23;;
18999;SDS011;9633;50.980;13.850;2023-07-22T06:31:27;5.40;;;4.43;;
18999;SDS011;9633;50.980;13.850;2023-07-22T06:33:02;5.47;;;4.70;;
18999;SDS011;9633;50.980;13.850;2023-07-22T06:34:36;5.93;;;4.20;;
18999;SDS011;9633;50.980;13.850;2023-07-22T06:36:09;4.57;;;4.00;;
18999;SDS011;9633;50.980;13.850;2023-07-22T06:37:42;4.80;;;4.23;;
18999;SDS011;9633;50.980;13.850;2023-07-22T06:39:15;5.80;;;4.77;;
18999;SDS011;9633;50.980;13.850;2023-07-22T06:40:47;5.77;;;3.90;;
18999;SDS011;9633;50.980;13.850;2023-07-22T06:42:20;9.27;;;4.53;;
18999;SDS011;9633;50.980;13.850;2023-07-22T06:43:52;5.10;;;4.17;;
18999;SDS011;9633;50.980;13.850;2023-07-22T06:45:26;4.87;;;4.23;;
18999;SDS011;9633;50.980;13.850;2023-07-22T06:46:58;7.07;;;5.07;;
18999;SDS011;9633;50.980;13.850;2023-07-22T06:48:32;6.93;;;4.37;;
18999;SDS011;9633;50.980;13.850;2023-07-22T06:50:06;7.03;;;5.00;;
18999;SDS011;9633;50.980;13.850;2023-07-22T06:51:40;7.43;;;4.90;;
18999;SDS011;9633;50.980;13.850;2023-07-22T06:53:12;7.47;;;4.87;;
18999;SDS011;9633;50.980;13.850;2023-07-22T06:54:46;8.23;;;5.00;;
18999;SDS011;9633;50.980;13.850;2023-07-22T06:56:18;7.73;;;4.90;;
18999;SDS011;9633;50.980;13.850;2023-07-22T06:57:51;7.03;;;5.00;;
18999;SDS011;9633;50.980;13.850;2023-07-22T06:59:27;5.47;;;4.90;;
18999;SDS011;9633;50.980;13.850;2023-07-22T07:01:00;6.03;;;4.40;;
18999;SDS011;9633;50.980;13.850;2023-07-22T07:02:33;5.07;;;4.57;;
18999;SDS011;9633;50.980;13.850;2023-07-22T07:04:05;6.23;;;4.40;;
18999;SDS011;9633;50.980;13.850;2023-07-22T07:05:40;5.97;;;4.60;;
18999;SDS011;9633;50.980;13.850;2023-07-22T07:07:13;5.83;;;4.30;;
18999;SDS011;9633;50.980;13.850;2023-07-22T07:08:46;5.30;;;4.47;;
18999;SDS011;9633;50.980;13.850;2023-07-22T07:10:20;7.67;;;4.73;;
18999;SDS011;9633;50.980;13.850;2023-07-22T07:11:53;4.90;;;4.10;;
18999;SDS011;9633;50.980;13.850;2023-07-22T07:13:28;5.53;;;4.70;;
18999;SDS011;9633;50.980;13.850;2023-07-22T07:15:01;5.60;;;4.80;;
18999;SDS011;9633;50.980;13.850;2023-07-22T07:16:34;7.97;;;4.23;;
18999;SDS011;9633;50.980;13.850;2023-07-22T07:18:07;5.90;;;4.27;;
18999;SDS011;9633;50.980;13.850;2023-07-22T07:19:39;9.70;;;4.20;;
18999;SDS011;9633;50.980;13.850;2023-07-22T07:21:14;6.57;;;4.37;;
18999;SDS011;9633;50.980;13.850;2023-07-22T07:22:46;12.03;;;8.37;;
18999;SDS011;9633;50.980;13.850;2023-07-22T07:24:19;5.30;;;4.30;;
18999;SDS011;9633;50.980;13.850;2023-07-22T07:25:52;4.20;;;3.80;;
18999;SDS011;9633;50.980;13.850;2023-07-22T07:27:27;6.40;;;4.23;;
18999;SDS011;9633;50.980;13.850;2023-07-22T07:29:00;5.70;;;4.10;;
18999;SDS011;9633;50.980;13.850;2023-07-22T07:30:33;6.77;;;4.40;;
18999;SDS011;9633;50.980;13.850;2023-07-22T07:32:05;4.53;;;3.93;;
18999;SDS011;9633;50.980;13.850;2023-07-22T07:33:39;5.77;;;4.20;;
18999;SDS011;9633;50.980;13.850;2023-07-22T07:35:12;4.83;;;4.03;;
18999;SDS011;9633;50.980;13.850;2023-07-22T07:36:46;4.10;;;3.77;;
18999;SDS011;9633;50.980;13.850;2023-07-22T07:38:20;8.00;;;4.43;;
18999;SDS011;9633;50.980;13.850;2023-07-22T07:39:52;4.20;;;3.80;;
18999;SDS011;9633;50.980;13.850;2023-07-22T07:41:25;4.60;;;4.03;;
18999;SDS011;9633;50.980;13.850;2023-07-22T07:42:57;5.93;;;4.33;;
18999;SDS011;9633;50.980;13.850;2023-07-22T07:44:30;4.50;;;4.10;;
18999;SDS011;9633;50.980;13.850;2023-07-22T07:46:12;6.00;;;4.10;;
18999;SDS011;9633;50.980;13.850;2023-07-22T07:47:49;5.83;;;4.47;;
18999;SDS011;9633;50.980;13.850;2023-07-22T07:49:22;5.30;;;3.90;;
18999;SDS011;9633;50.980;13.850;2023-07-22T07:50:55;5.17;;;3.83;;
18999;SDS011;9633;50.980;13.850;2023-07-22T07:52:29;4.87;;;4.00;;
18999;SDS011;9633;50.980;13.850;2023-07-22T07:54:02;4.50;;;4.10;;
18999;SDS011;9633;50.980;13.850;2023-07-22T07:55:38;5.20;;;4.27;;
18999;SDS011;9633;50.980;13.850;2023-07-22T07:57:10;5.07;;;3.80;;
18999;SDS011;9633;50.980;13.850;2023-07-22T07:58:43;4.70;;;3.90;;
18999;SDS011;9633;50.980;13.850;2023-07-22T08:00:17;5.03;;;4.33;;
18999;SDS011;9633;50.980;13.850;2023-07-22T08:01:51;4.57;;;4.17;;
18999;SDS011;9633;50.980;13.850;2023-07-22T08:03:24;4.03;;;3.63;;
18999;SDS011;9633;50.980;13.850;2023-07-22T08:04:57;5.33;;;3.90;;
18999;SDS011;9633;50.980;13.850;2023-07-22T08:06:30;4.87;;;4.20;;
18999;SDS011;9633;50.980;13.850;2023-07-22T08:08:04;4.60;;;4.17;;
18999;SDS011;9633;50.980;13.850;2023-07-22T08:09:41;4.30;;;3.83;;
18999;SDS011;9633;50.980;13.850;2023-07-22T08:11:15;5.77;;;4.33;;
18999;SDS011;9633;50.980;13.850;2023-07-22T08:12:47;4.47;;;4.07;;
18999;SDS011;9633;50.980;13.850;2023-07-22T08:14:20;4.77;;;3.83;;
18999;SDS011;9633;50.980;13.850;2023-07-22T08:15:53;6.07;;;3.93;;
18999;SDS011;9633;50.980;13.850;2023-07-22T08:17:26;4.03;;;3.47;;
18999;SDS011;9633;50.980;13.850;2023-07-22T08:18:59;4.80;;;3.87;;
18999;SDS011;9633;50.980;13.850;2023-07-22T08:20:31;4.40;;;4.00;;
18999;SDS011;9633;50.980;13.850;2023-07-22T08:22:04;4.47;;;4.07;;
18999;SDS011;9633;50.980;13.850;2023-07-22T08:23:38;4.57;;;4.17;;
18999;SDS011;9633;50.980;13.850;2023-07-22T08:25:12;5.07;;;3.90;;
18999;SDS011;9633;50.980;13.850;2023-07-22T08:26:45;5.33;;;4.00;;
18999;SDS011;9633;50.980;13.850;2023-07-22T08:28:18;5.27;;;4.30;;
18999;SDS011;9633;50.980;13.850;2023-07-22T08:29:50;5.57;;;4.10;;
18999;SDS011;9633;50.980;13.850;2023-07-22T08:31:23;5.40;;;4.10;;
18999;SDS011;9633;50.980;13.850;2023-07-22T08:32:56;6.83;;;4.43;;
18999;SDS011;9633;50.980;13.850;2023-07-22T08:34:29;7.03;;;4.70;;
18999;SDS011;9633;50.980;13.850;2023-07-22T08:36:01;6.53;;;4.23;;
18999;SDS011;9633;50.980;13.850;2023-07-22T08:37:34;4.50;;;4.10;;
18999;SDS011;9633;50.980;13.850;2023-07-22T08:39:09;5.47;;;4.03;;
18999;SDS011;9633;50.980;13.850;2023-07-22T08:40:41;5.57;;;4.00;;
18999;SDS011;9633;50.980;13.850;2023-07-22T08:42:15;4.30;;;3.63;;
18999;SDS011;9633;50.980;13.850;2023-07-22T08:43:50;5.10;;;4.10;;
18999;SDS011;9633;50.980;13.850;2023-07-22T08:45:25;7.27;;;4.33;;
18999;SDS011;9633;50.980;13.850;2023-07-22T08:47:00;4.33;;;3.73;;
18999;SDS011;9633;50.980;13.850;2023-07-22T08:48:36;5.73;;;4.00;;
18999;SDS011;9633;50.980;13.850;2023-07-22T08:50:10;4.77;;;3.33;;
18999;SDS011;9633;50.980;13.850;2023-07-22T08:51:44;5.93;;;4.20;;
18999;SDS011;9633;50.980;13.850;2023-07-22T08:53:17;4.63;;;3.70;;
18999;SDS011;9633;50.980;13.850;2023-07-22T08:54:52;3.77;;;3.40;;
18999;SDS011;9633;50.980;13.850;2023-07-22T08:56:27;3.23;;;2.93;;
18999;SDS011;9633;50.980;13.850;2023-07-22T08:58:00;4.73;;;3.40;;
18999;SDS011;9633;50.980;13.850;2023-07-22T08:59:34;3.87;;;3.37;;
18999;SDS011;9633;50.980;13.850;2023-07-22T09:01:07;4.67;;;3.50;;
18999;SDS011;9633;50.980;13.850;2023-07-22T09:02:41;5.17;;;3.90;;
18999;SDS011;9633;50.980;13.850;2023-07-22T09:04:14;4.70;;;3.37;;
18999;SDS011;9633;50.980;13.850;2023-07-22T09:05:47;3.30;;;3.00;;
18999;SDS011;9633;50.980;13.850;2023-07-22T09:07:19;4.40;;;3.47;;
18999;SDS011;9633;50.980;13.850;2023-07-22T09:08:53;5.13;;;3.00;;
18999;SDS011;9633;50.980;13.850;2023-07-22T09:10:28;5.63;;;3.10;;
18999;SDS011;9633;50.980;13.850;2023-07-22T09:12:01;3.57;;;3.13;;
18999;SDS011;9633;50.980;13.850;2023-07-22T09:13:35;7.17;;;3.40;;
18999;SDS011;9633;50.980;13.850;2023-07-22T09:15:11;4.10;;;3.70;;
18999;SDS011;9633;50.980;13.850;2023-07-22T09:16:45;5.87;;;4.27;;
18999;SDS011;9633;50.980;13.850;2023-07-22T09:18:17;4.67;;;3.87;;
18999;SDS011;9633;50.980;13.850;2023-07-22T09:19:51;4.90;;;3.17;;
18999;SDS011;9633;50.980;13.850;2023-07-22T09:21:24;5.37;;;3.00;;
18999;SDS011;9633;50.980;13.850;2023-07-22T09:22:59;5.23;;;3.33;;